sensor_id;sensor_type;location;lat;lon;timestamp;P1;durP1;ratioP1;P2;durP2;ratioP2
34102;SDS011;20381;54.498;18.206;2022-07-10T06:58:07;4.47;;;1.55;;
34102;SDS011;20381;54.498;18.206;2022-07-10T07:03:01;4.28;;;0.90;;
34102;SDS011;20381;54.498;18.206;2022-07-10T07:05:30;4.12;;;1.20;;
34102;SDS011;20381;54.498;18.206;2022-07-10T07:07:57;4.20;;;1.33;;
34102;SDS011;20381;54.498;18.206;2022-07-10T07:10:24;4.00;;;1.27;;
34102;SDS011;20381;54.498;18.206;2022-07-10T07:12:50;4.47;;;1.60;;
34102;SDS011;20381;54.498;18.206;2022-07-10T07:15:19;3.55;;;1.22;;
34102;SDS011;20381;54.498;18.206;2022-07-10T07:17:47;5.30;;;1.42;;
34102;SDS011;20381;54.498;18.206;2022-07-10T07:20:15;3.83;;;1.20;;
34102;SDS011;20381;54.498;18.206;2022-07-10T07:23:02;6.65;;;1.30;;
34102;SDS011;20381;54.498;18.206;2022-07-10T07:25:38;4.28;;;1.20;;
34102;SDS011;20381;54.498;18.206;2022-07-10T07:28:08;6.75;;;1.35;;
34102;SDS011;20381;54.498;18.206;2022-07-10T07:30:36;4.20;;;1.35;;
34102;SDS011;20381;54.498;18.206;2022-07-10T07:33:03;3.22;;;1.00;;
34102;SDS011;20381;54.498;18.206;2022-07-10T07:35:30;6.53;;;1.22;;
34102;SDS011;20381;54.498;18.206;2022-07-10T07:37:57;2.95;;;0.85;;
34102;SDS011;20381;54.498;18.206;2022-07-10T07:42:54;5.90;;;1.42;;
34102;SDS011;20381;54.498;18.206;2022-07-10T07:45:22;3.62;;;1.17;;
34102;SDS011;20381;54.498;18.206;2022-07-10T07:47:57;5.08;;;1.55;;
34102;SDS011;20381;54.498;18.206;2022-07-10T07:50:26;5.28;;;1.35;;
34102;SDS011;20381;54.498;18.206;2022-07-10T07:52:56;4.37;;;1.25;;
34102;SDS011;20381;54.498;18.206;2022-07-10T07:55:23;3.87;;;1.37;;
34102;SDS011;20381;54.498;18.206;2022-07-10T07:57:51;5.83;;;1.52;;
34102;SDS011;20381;54.498;18.206;2022-07-10T08:00:24;3.30;;;1.07;;
34102;SDS011;20381;54.498;18.206;2022-07-10T08:02:53;2.85;;;1.07;;
34102;SDS011;20381;54.498;18.206;2022-07-10T08:05:22;5.25;;;1.40;;
34102;SDS011;20381;54.498;18.206;2022-07-10T08:07:54;2.27;;;0.93;;
34102;SDS011;20381;54.498;18.206;2022-07-10T08:10:21;6.00;;;1.02;;
34102;SDS011;20381;54.498;18.206;2022-07-10T08:12:51;4.17;;;1.12;;
34102;SDS011;20381;54.498;18.206;2022-07-10T08:15:18;3.90;;;1.20;;
34102;SDS011;20381;54.498;18.206;2022-07-10T08:17:49;2.62;;;0.88;;
34102;SDS011;20381;54.498;18.206;2022-07-10T08:20:17;3.90;;;1.10;;
34102;SDS011;20381;54.498;18.206;2022-07-10T08:22:44;6.55;;;1.20;;
34102;SDS011;20381;54.498;18.206;2022-07-10T08:25:12;4.33;;;1.27;;
34102;SDS011;20381;54.498;18.206;2022-07-10T08:27:39;4.40;;;1.32;;
34102;SDS011;20381;54.498;18.206;2022-07-10T08:32:35;6.47;;;1.30;;
34102;SDS011;20381;54.498;18.206;2022-07-10T08:35:03;4.95;;;1.20;;
34102;SDS011;20381;54.498;18.206;2022-07-10T08:37:40;3.12;;;1.40;;
34102;SDS011;20381;54.498;18.206;2022-07-10T08:40:09;4.83;;;1.50;;
34102;SDS011;20381;54.498;18.206;2022-07-10T08:42:39;6.12;;;1.50;;
34102;SDS011;20381;54.498;18.206;2022-07-10T08:45:09;4.05;;;1.22;;
34102;SDS011;20381;54.498;18.206;2022-07-10T08:47:38;4.58;;;1.30;;
34102;SDS011;20381;54.498;18.206;2022-07-10T08:50:13;6.10;;;1.42;;
34102;SDS011;20381;54.498;18.206;2022-07-10T08:52:58;4.25;;;1.65;;
34102;SDS011;20381;54.498;18.206;2022-07-10T08:55:46;5.70;;;1.60;;
34102;SDS011;20381;54.498;18.206;2022-07-10T08:58:13;8.35;;;1.30;;
34102;SDS011;20381;54.498;18.206;2022-07-10T09:03:09;2.58;;;1.12;;
34102;SDS011;20381;54.498;18.206;2022-07-10T09:05:36;5.92;;;1.42;;
34102;SDS011;20381;54.498;18.206;2022-07-10T09:08:03;5.17;;;1.77;;
34102;SDS011;20381;54.498;18.206;2022-07-10T09:10:32;5.47;;;1.30;;
34102;SDS011;20381;54.498;18.206;2022-07-10T09:13:00;7.25;;;1.15;;
34102;SDS011;20381;54.498;18.206;2022-07-10T09:15:29;5.78;;;1.20;;
34102;SDS011;20381;54.498;18.206;2022-07-10T09:18:03;4.87;;;1.22;;
34102;SDS011;20381;54.498;18.206;2022-07-10T09:23:15;7.37;;;1.92;;
34102;SDS011;20381;54.498;18.206;2022-07-10T09:25:45;4.10;;;1.60;;
34102;SDS011;20381;54.498;18.206;2022-07-10T09:28:16;3.42;;;1.65;;
34102;SDS011;20381;54.498;18.206;2022-07-10T09:30:46;4.25;;;1.57;;
34102;SDS011;20381;54.498;18.206;2022-07-10T09:33:22;6.03;;;1.57;;
34102;SDS011;20381;54.498;18.206;2022-07-10T09:35:59;3.08;;;1.25;;
34102;SDS011;20381;54.498;18.206;2022-07-10T09:41:18;7.08;;;0.95;;
34102;SDS011;20381;54.498;18.206;2022-07-10T09:43:50;7.28;;;1.07;;
34102;SDS011;20381;54.498;18.206;2022-07-10T09:46:20;4.40;;;1.27;;
34102;SDS011;20381;54.498;18.206;2022-07-10T09:49:32;6.42;;;1.40;;
34102;SDS011;20381;54.498;18.206;2022-07-10T09:51:30;2.62;;;1.07;;
34102;SDS011;20381;54.498;18.206;2022-07-10T09:54:04;3.25;;;1.00;;
34102;SDS011;20381;54.498;18.206;2022-07-10T09:56:33;4.50;;;1.00;;
34102;SDS011;20381;54.498;18.206;2022-07-10T09:59:09;5.08;;;1.00;;
34102;SDS011;20381;54.498;18.206;2022-07-10T10:01:45;6.95;;;1.30;;
34102;SDS011;20381;54.498;18.206;2022-07-10T10:04:14;4.42;;;1.30;;
34102;SDS011;20381;54.498;18.206;2022-07-10T10:06:55;2.52;;;0.85;;
34102;SDS011;20381;54.498;18.206;2022-07-10T10:09:28;4.30;;;1.00;;
34102;SDS011;20381;54.498;18.206;2022-07-10T10:12:02;3.98;;;1.22;;
34102;SDS011;20381;54.498;18.206;2022-07-10T10:14:37;10.50;;;1.42;;
34102;SDS011;20381;54.498;18.206;2022-07-10T10:17:06;3.55;;;0.90;;
34102;SDS011;20381;54.498;18.206;2022-07-10T10:19:34;4.03;;;1.20;;
34102;SDS011;20381;54.498;18.206;2022-07-10T10:22:22;9.63;;;1.40;;
34102;SDS011;20381;54.498;18.206;2022-07-10T10:24:50;5.53;;;1.60;;
34102;SDS011;20381;54.498;18.206;2022-07-10T10:27:19;5.95;;;1.10;;
34102;SDS011;20381;54.498;18.206;2022-07-10T10:29:47;5.30;;;1.57;;
34102;SDS011;20381;54.498;18.206;2022-07-10T10:32:15;4.92;;;1.10;;
34102;SDS011;20381;54.498;18.206;2022-07-10T10:40:07;6.60;;;1.30;;
34102;SDS011;20381;54.498;18.206;2022-07-10T10:42:37;4.05;;;1.25;;
34102;SDS011;20381;54.498;18.206;2022-07-10T10:50:38;7.65;;;1.12;;
34102;SDS011;20381;54.498;18.206;2022-07-10T10:53:23;4.35;;;1.12;;
34102;SDS011;20381;54.498;18.206;2022-07-10T10:58:37;3.42;;;0.90;;
34102;SDS011;20381;54.498;18.206;2022-07-10T11:04:12;5.08;;;1.52;;
34102;SDS011;20381;54.498;18.206;2022-07-10T11:09:23;4.72;;;1.25;;
34102;SDS011;20381;54.498;18.206;2022-07-10T11:14:38;4.22;;;1.10;;
34102;SDS011;20381;54.498;18.206;2022-07-10T11:17:09;3.33;;;0.80;;
34102;SDS011;20381;54.498;18.206;2022-07-10T11:19:39;2.37;;;0.80;;
34102;SDS011;20381;54.498;18.206;2022-07-10T11:30:46;5.15;;;0.80;;
34102;SDS011;20381;54.498;18.206;2022-07-10T11:33:17;3.85;;;1.17;;
34102;SDS011;20381;54.498;18.206;2022-07-10T11:35:48;3.02;;;0.90;;
34102;SDS011;20381;54.498;18.206;2022-07-10T11:38:23;4.50;;;0.90;;
34102;SDS011;20381;54.498;18.206;2022-07-10T11:43:21;3.87;;;0.80;;
34102;SDS011;20381;54.498;18.206;2022-07-10T11:45:49;4.70;;;0.90;;
34102;SDS011;20381;54.498;18.206;2022-07-10T11:48:23;1.75;;;0.75;;
34102;SDS011;20381;54.498;18.206;2022-07-10T11:50:49;4.97;;;1.45;;
34102;SDS011;20381;54.498;18.206;2022-07-10T11:53:25;4.00;;;1.25;;
34102;SDS011;20381;54.498;18.206;2022-07-10T11:55:52;3.93;;;1.20;;
34102;SDS011;20381;54.498;18.206;2022-07-10T11:58:19;6.42;;;1.02;;
34102;SDS011;20381;54.498;18.206;2022-07-10T12:01:04;3.98;;;1.12;;
34102;SDS011;20381;54.498;18.206;2022-07-10T12:03:31;6.03;;;1.30;;
34102;SDS011;20381;54.498;18.206;2022-07-10T12:06:05;2.95;;;0.80;;
34102;SDS011;20381;54.498;18.206;2022-07-10T12:08:45;2.55;;;0.98;;
34102;SDS011;20381;54.498;18.206;2022-07-10T12:11:13;5.17;;;0.60;;
34102;SDS011;20381;54.498;18.206;2022-07-10T12:13:42;2.15;;;0.70;;
34102;SDS011;20381;54.498;18.206;2022-07-10T12:16:09;4.35;;;0.85;;
34102;SDS011;20381;54.498;18.206;2022-07-10T12:21:05;6.53;;;0.80;;
34102;SDS011;20381;54.498;18.206;2022-07-10T12:23:34;6.58;;;0.98;;
34102;SDS011;20381;54.498;18.206;2022-07-10T12:26:03;3.12;;;1.22;;
34102;SDS011;20381;54.498;18.206;2022-07-10T12:28:47;2.98;;;0.98;;
34102;SDS011;20381;54.498;18.206;2022-07-10T12:31:26;3.83;;;1.00;;
34102;SDS011;20381;54.498;18.206;2022-07-10T12:33:58;2.87;;;1.00;;
34102;SDS011;20381;54.498;18.206;2022-07-10T12:36:47;3.17;;;1.07;;
34102;SDS011;20381;54.498;18.206;2022-07-10T12:39:22;3.33;;;1.00;;
34102;SDS011;20381;54.498;18.206;2022-07-10T12:42:01;4.65;;;1.22;;
34102;SDS011;20381;54.498;18.206;2022-07-10T12:47:15;2.72;;;0.80;;
34102;SDS011;20381;54.498;18.206;2022-07-10T12:50:03;3.37;;;1.10;;
34102;SDS011;20381;54.498;18.206;2022-07-10T12:52:33;6.87;;;1.12;;
34102;SDS011;20381;54.498;18.206;2022-07-10T12:55:13;4.75;;;1.20;;
34102;SDS011;20381;54.498;18.206;2022-07-10T12:57:48;3.85;;;1.02;;
34102;SDS011;20381;54.498;18.206;2022-07-10T13:00:24;2.65;;;0.90;;
34102;SDS011;20381;54.498;18.206;2022-07-10T13:02:57;3.80;;;1.15;;
34102;SDS011;20381;54.498;18.206;2022-07-10T13:05:30;2.08;;;0.55;;
34102;SDS011;20381;54.498;18.206;2022-07-10T13:10:46;5.00;;;1.30;;
34102;SDS011;20381;54.498;18.206;2022-07-10T13:13:19;5.10;;;1.22;;
34102;SDS011;20381;54.498;18.206;2022-07-10T13:15:48;3.02;;;0.98;;
34102;SDS011;20381;54.498;18.206;2022-07-10T13:18:20;2.35;;;0.95;;
34102;SDS011;20381;54.498;18.206;2022-07-10T13:20:50;3.37;;;1.00;;
34102;SDS011;20381;54.498;18.206;2022-07-10T13:23:20;3.08;;;0.80;;
34102;SDS011;20381;54.498;18.206;2022-07-10T13:25:55;8.45;;;1.00;;
34102;SDS011;20381;54.498;18.206;2022-07-10T13:28:21;3.92;;;1.00;;
34102;SDS011;20381;54.498;18.206;2022-07-10T13:30:48;4.22;;;0.95;;
34102;SDS011;20381;54.498;18.206;2022-07-10T13:33:15;6.65;;;1.30;;
34102;SDS011;20381;54.498;18.206;2022-07-10T13:35:42;3.00;;;1.00;;
34102;SDS011;20381;54.498;18.206;2022-07-10T13:38:08;3.40;;;1.17;;
34102;SDS011;20381;54.498;18.206;2022-07-10T13:40:36;3.95;;;0.80;;
34102;SDS011;20381;54.498;18.206;2022-07-10T13:43:03;2.50;;;1.00;;
34102;SDS011;20381;54.498;18.206;2022-07-10T13:45:34;1.60;;;0.50;;
34102;SDS011;20381;54.498;18.206;2022-07-10T13:48:06;2.12;;;0.55;;
34102;SDS011;20381;54.498;18.206;2022-07-10T13:50:33;2.77;;;1.27;;
34102;SDS011;20381;54.498;18.206;2022-07-10T13:52:59;1.62;;;0.40;;
34102;SDS011;20381;54.498;18.206;2022-07-10T13:55:26;2.12;;;0.80;;
34102;SDS011;20381;54.498;18.206;2022-07-10T13:57:53;1.82;;;0.65;;
34102;SDS011;20381;54.498;18.206;2022-07-10T14:00:19;4.05;;;0.70;;
34102;SDS011;20381;54.498;18.206;2022-07-10T14:02:46;2.52;;;0.68;;
34102;SDS011;20381;54.498;18.206;2022-07-10T14:05:12;0.82;;;0.33;;
34102;SDS011;20381;54.498;18.206;2022-07-10T14:07:39;0.85;;;0.42;;
34102;SDS011;20381;54.498;18.206;2022-07-10T14:11:15;2.33;;;0.70;;
34102;SDS011;20381;54.498;18.206;2022-07-10T14:13:43;1.25;;;0.70;;
34102;SDS011;20381;54.498;18.206;2022-07-10T14:16:10;4.67;;;0.98;;
34102;SDS011;20381;54.498;18.206;2022-07-10T14:18:36;2.98;;;0.80;;
34102;SDS011;20381;54.498;18.206;2022-07-10T14:21:04;2.05;;;0.93;;
34102;SDS011;20381;54.498;18.206;2022-07-10T14:23:37;1.55;;;0.55;;
34102;SDS011;20381;54.498;18.206;2022-07-10T14:26:10;1.70;;;0.50;;
34102;SDS011;20381;54.498;18.206;2022-07-10T14:28:38;0.93;;;0.50;;
34102;SDS011;20381;54.498;18.206;2022-07-10T14:31:06;1.17;;;0.57;;
34102;SDS011;20381;54.498;18.206;2022-07-10T14:33:34;2.92;;;0.70;;
34102;SDS011;20381;54.498;18.206;2022-07-10T14:36:02;1.65;;;0.50;;
34102;SDS011;20381;54.498;18.206;2022-07-10T14:38:30;1.67;;;0.60;;
34102;SDS011;20381;54.498;18.206;2022-07-10T14:40:57;1.65;;;0.72;;
34102;SDS011;20381;54.498;18.206;2022-07-10T14:43:24;1.80;;;0.55;;
34102;SDS011;20381;54.498;18.206;2022-07-10T14:46:12;0.93;;;0.40;;
34102;SDS011;20381;54.498;18.206;2022-07-10T14:48:39;2.40;;;0.72;;
34102;SDS011;20381;54.498;18.206;2022-07-10T14:51:05;3.00;;;0.98;;
34102;SDS011;20381;54.498;18.206;2022-07-10T14:53:33;1.17;;;0.50;;
34102;SDS011;20381;54.498;18.206;2022-07-10T14:56:01;3.25;;;0.62;;
34102;SDS011;20381;54.498;18.206;2022-07-10T14:58:29;2.75;;;0.50;;
34102;SDS011;20381;54.498;18.206;2022-07-10T15:00:55;1.65;;;0.57;;
34102;SDS011;20381;54.498;18.206;2022-07-10T15:03:22;1.07;;;0.42;;
34102;SDS011;20381;54.498;18.206;2022-07-10T15:05:49;2.52;;;0.60;;
34102;SDS011;20381;54.498;18.206;2022-07-10T15:08:21;3.70;;;0.72;;
34102;SDS011;20381;54.498;18.206;2022-07-10T15:10:48;2.65;;;0.62;;
34102;SDS011;20381;54.498;18.206;2022-07-10T15:13:16;2.35;;;0.62;;
34102;SDS011;20381;54.498;18.206;2022-07-10T15:15:43;2.70;;;0.70;;
34102;SDS011;20381;54.498;18.206;2022-07-10T15:18:10;4.25;;;0.50;;
34102;SDS011;20381;54.498;18.206;2022-07-10T15:20:37;1.30;;;0.47;;
34102;SDS011;20381;54.498;18.206;2022-07-10T15:23:04;2.00;;;0.70;;
34102;SDS011;20381;54.498;18.206;2022-07-10T15:25:31;0.72;;;0.40;;
34102;SDS011;20381;54.498;18.206;2022-07-10T15:28:01;1.20;;;0.40;;
34102;SDS011;20381;54.498;18.206;2022-07-10T15:30:28;1.32;;;0.50;;
34102;SDS011;20381;54.498;18.206;2022-07-10T15:32:54;1.25;;;0.60;;
34102;SDS011;20381;54.498;18.206;2022-07-10T15:35:21;1.20;;;0.50;;
34102;SDS011;20381;54.498;18.206;2022-07-10T15:37:49;0.82;;;0.50;;
34102;SDS011;20381;54.498;18.206;2022-07-10T15:40:15;1.07;;;0.57;;
34102;SDS011;20381;54.498;18.206;2022-07-10T15:42:42;1.32;;;0.53;;
34102;SDS011;20381;54.498;18.206;2022-07-10T15:45:09;1.75;;;0.68;;
34102;SDS011;20381;54.498;18.206;2022-07-10T15:47:36;1.30;;;0.65;;
34102;SDS011;20381;54.498;18.206;2022-07-10T15:50:04;1.87;;;0.50;;
34102;SDS011;20381;54.498;18.206;2022-07-10T15:52:32;1.27;;;0.45;;
34102;SDS011;20381;54.498;18.206;2022-07-10T15:54:59;1.65;;;0.68;;
34102;SDS011;20381;54.498;18.206;2022-07-10T15:57:26;1.55;;;0.47;;
34102;SDS011;20381;54.498;18.206;2022-07-10T15:59:54;3.72;;;0.80;;
34102;SDS011;20381;54.498;18.206;2022-07-10T16:02:21;1.87;;;0.68;;
34102;SDS011;20381;54.498;18.206;2022-07-10T16:04:48;2.35;;;0.72;;
34102;SDS011;20381;54.498;18.206;2022-07-10T16:07:14;2.90;;;0.53;;
34102;SDS011;20381;54.498;18.206;2022-07-10T16:09:41;1.52;;;0.65;;
34102;SDS011;20381;54.498;18.206;2022-07-10T16:12:08;1.25;;;0.70;;
34102;SDS011;20381;54.498;18.206;2022-07-10T16:14:34;0.90;;;0.50;;
34102;SDS011;20381;54.498;18.206;2022-07-10T16:17:01;1.12;;;0.30;;
34102;SDS011;20381;54.498;18.206;2022-07-10T16:19:29;0.85;;;0.30;;
34102;SDS011;20381;54.498;18.206;2022-07-10T16:21:56;2.55;;;0.55;;
34102;SDS011;20381;54.498;18.206;2022-07-10T16:24:24;1.95;;;0.57;;
34102;SDS011;20381;54.498;18.206;2022-07-10T16:26:50;1.75;;;0.42;;
34102;SDS011;20381;54.498;18.206;2022-07-10T16:29:17;1.07;;;0.45;;
34102;SDS011;20381;54.498;18.206;2022-07-10T16:31:47;2.00;;;0.53;;
34102;SDS011;20381;54.498;18.206;2022-07-10T16:34:13;2.42;;;0.45;;
34102;SDS011;20381;54.498;18.206;2022-07-10T16:36:40;1.90;;;0.47;;
34102;SDS011;20381;54.498;18.206;2022-07-10T16:39:06;1.10;;;0.42;;
34102;SDS011;20381;54.498;18.206;2022-07-10T16:41:33;0.60;;;0.25;;
34102;SDS011;20381;54.498;18.206;2022-07-10T16:45:56;3.98;;;0.42;;
34102;SDS011;20381;54.498;18.206;2022-07-10T16:48:25;0.95;;;0.40;;
34102;SDS011;20381;54.498;18.206;2022-07-10T16:50:51;1.45;;;0.57;;
34102;SDS011;20381;54.498;18.206;2022-07-10T16:55:48;1.65;;;0.62;;
34102;SDS011;20381;54.498;18.206;2022-07-10T16:58:17;1.15;;;0.50;;
34102;SDS011;20381;54.498;18.206;2022-07-10T17:00:43;2.42;;;0.50;;
34102;SDS011;20381;54.498;18.206;2022-07-10T17:03:10;1.65;;;0.40;;
34102;SDS011;20381;54.498;18.206;2022-07-10T17:05:37;1.37;;;0.42;;
34102;SDS011;20381;54.498;18.206;2022-07-10T17:08:04;2.20;;;0.40;;
34102;SDS011;20381;54.498;18.206;2022-07-10T17:10:33;2.05;;;0.50;;
34102;SDS011;20381;54.498;18.206;2022-07-10T17:12:59;4.67;;;0.70;;
34102;SDS011;20381;54.498;18.206;2022-07-10T17:15:26;0.60;;;0.30;;
34102;SDS011;20381;54.498;18.206;2022-07-10T17:17:53;1.50;;;0.55;;
34102;SDS011;20381;54.498;18.206;2022-07-10T17:20:20;1.25;;;0.45;;
34102;SDS011;20381;54.498;18.206;2022-07-10T17:22:48;2.08;;;0.60;;
34102;SDS011;20381;54.498;18.206;2022-07-10T17:25:15;2.00;;;0.60;;
34102;SDS011;20381;54.498;18.206;2022-07-10T17:29:39;1.50;;;0.60;;
34102;SDS011;20381;54.498;18.206;2022-07-10T17:34:34;0.80;;;0.40;;
34102;SDS011;20381;54.498;18.206;2022-07-10T17:37:01;1.67;;;0.60;;
34102;SDS011;20381;54.498;18.206;2022-07-10T17:39:29;2.95;;;0.82;;
34102;SDS011;20381;54.498;18.206;2022-07-10T17:41:58;1.20;;;0.70;;
34102;SDS011;20381;54.498;18.206;2022-07-10T17:44:25;1.35;;;0.60;;
34102;SDS011;20381;54.498;18.206;2022-07-10T17:46:52;1.85;;;0.70;;
34102;SDS011;20381;54.498;18.206;2022-07-10T17:49:20;2.22;;;0.62;;
34102;SDS011;20381;54.498;18.206;2022-07-10T17:51:47;2.90;;;0.70;;
34102;SDS011;20381;54.498;18.206;2022-07-10T17:57:02;1.32;;;0.53;;
34102;SDS011;20381;54.498;18.206;2022-07-10T17:59:31;3.37;;;0.98;;
34102;SDS011;20381;54.498;18.206;2022-07-10T18:01:57;2.65;;;0.60;;
34102;SDS011;20381;54.498;18.206;2022-07-10T18:04:24;1.95;;;0.50;;
34102;SDS011;20381;54.498;18.206;2022-07-10T18:06:51;1.45;;;0.65;;
34102;SDS011;20381;54.498;18.206;2022-07-10T18:09:18;1.70;;;0.57;;
34102;SDS011;20381;54.498;18.206;2022-07-10T18:11:45;3.37;;;0.88;;
34102;SDS011;20381;54.498;18.206;2022-07-10T18:14:12;1.10;;;0.62;;
34102;SDS011;20381;54.498;18.206;2022-07-10T18:16:39;1.47;;;0.68;;
34102;SDS011;20381;54.498;18.206;2022-07-10T18:19:06;1.62;;;0.70;;
34102;SDS011;20381;54.498;18.206;2022-07-10T18:21:34;2.70;;;0.50;;
34102;SDS011;20381;54.498;18.206;2022-07-10T18:24:02;2.35;;;0.90;;
34102;SDS011;20381;54.498;18.206;2022-07-10T18:26:30;4.35;;;0.85;;
34102;SDS011;20381;54.498;18.206;2022-07-10T18:28:57;0.82;;;0.40;;
34102;SDS011;20381;54.498;18.206;2022-07-10T18:31:25;3.52;;;0.60;;
34102;SDS011;20381;54.498;18.206;2022-07-10T18:33:53;2.22;;;0.75;;
34102;SDS011;20381;54.498;18.206;2022-07-10T18:36:39;2.33;;;0.62;;
34102;SDS011;20381;54.498;18.206;2022-07-10T18:39:10;4.17;;;0.78;;
34102;SDS011;20381;54.498;18.206;2022-07-10T18:41:37;0.40;;;0.30;;
34102;SDS011;20381;54.498;18.206;2022-07-10T18:44:05;2.45;;;0.50;;
34102;SDS011;20381;54.498;18.206;2022-07-10T18:46:32;1.32;;;0.40;;
34102;SDS011;20381;54.498;18.206;2022-07-10T18:48:58;1.42;;;0.57;;
34102;SDS011;20381;54.498;18.206;2022-07-10T18:51:26;2.75;;;0.60;;
34102;SDS011;20381;54.498;18.206;2022-07-10T18:53:55;1.30;;;0.65;;
34102;SDS011;20381;54.498;18.206;2022-07-10T18:58:49;2.23;;;0.80;;
34102;SDS011;20381;54.498;18.206;2022-07-10T19:03:46;1.87;;;0.80;;
34102;SDS011;20381;54.498;18.206;2022-07-10T19:06:14;1.77;;;0.68;;
34102;SDS011;20381;54.498;18.206;2022-07-10T19:08:40;2.35;;;0.93;;
34102;SDS011;20381;54.498;18.206;2022-07-10T19:11:07;2.40;;;1.00;;
34102;SDS011;20381;54.498;18.206;2022-07-10T19:16:03;2.12;;;0.93;;
34102;SDS011;20381;54.498;18.206;2022-07-10T19:18:31;2.33;;;0.95;;
34102;SDS011;20381;54.498;18.206;2022-07-10T19:21:00;3.22;;;0.95;;
34102;SDS011;20381;54.498;18.206;2022-07-10T19:23:27;4.23;;;2.00;;
34102;SDS011;20381;54.498;18.206;2022-07-10T19:25:53;5.62;;;2.15;;
34102;SDS011;20381;54.498;18.206;2022-07-10T19:28:20;4.77;;;1.73;;
34102;SDS011;20381;54.498;18.206;2022-07-10T19:30:51;3.62;;;1.30;;
34102;SDS011;20381;54.498;18.206;2022-07-10T19:33:16;2.80;;;1.20;;
34102;SDS011;20381;54.498;18.206;2022-07-10T19:35:42;2.87;;;1.40;;
34102;SDS011;20381;54.498;18.206;2022-07-10T19:38:09;3.73;;;1.23;;
34102;SDS011;20381;54.498;18.206;2022-07-10T19:40:35;5.07;;;1.77;;
34102;SDS011;20381;54.498;18.206;2022-07-10T19:43:02;4.47;;;1.37;;
34102;SDS011;20381;54.498;18.206;2022-07-10T19:45:29;3.45;;;1.57;;
34102;SDS011;20381;54.498;18.206;2022-07-10T19:47:56;4.93;;;1.70;;
34102;SDS011;20381;54.498;18.206;2022-07-10T19:50:23;5.13;;;2.00;;
34102;SDS011;20381;54.498;18.206;2022-07-10T19:52:51;8.15;;;2.47;;
34102;SDS011;20381;54.498;18.206;2022-07-10T19:55:17;4.17;;;2.08;;
34102;SDS011;20381;54.498;18.206;2022-07-10T19:57:44;3.50;;;1.90;;
34102;SDS011;20381;54.498;18.206;2022-07-10T20:00:13;4.85;;;2.08;;
34102;SDS011;20381;54.498;18.206;2022-07-10T20:02:41;3.35;;;1.45;;
34102;SDS011;20381;54.498;18.206;2022-07-10T20:05:08;2.17;;;1.40;;
34102;SDS011;20381;54.498;18.206;2022-07-10T20:07:35;4.85;;;1.45;;
34102;SDS011;20381;54.498;18.206;2022-07-10T20:10:02;3.20;;;1.30;;
34102;SDS011;20381;54.498;18.206;2022-07-10T20:12:30;1.37;;;1.27;;
34102;SDS011;20381;54.498;18.206;2022-07-10T20:14:58;4.70;;;1.50;;
34102;SDS011;20381;54.498;18.206;2022-07-10T20:17:26;2.98;;;1.50;;
34102;SDS011;20381;54.498;18.206;2022-07-10T20:19:52;2.85;;;1.82;;
34102;SDS011;20381;54.498;18.206;2022-07-10T20:22:20;4.10;;;1.80;;
34102;SDS011;20381;54.498;18.206;2022-07-10T20:24:46;1.55;;;1.40;;
34102;SDS011;20381;54.498;18.206;2022-07-10T20:27:13;4.25;;;1.70;;
34102;SDS011;20381;54.498;18.206;2022-07-10T20:29:41;3.27;;;1.67;;
34102;SDS011;20381;54.498;18.206;2022-07-10T20:32:10;3.50;;;1.40;;
34102;SDS011;20381;54.498;18.206;2022-07-10T20:34:37;2.15;;;1.40;;
34102;SDS011;20381;54.498;18.206;2022-07-10T20:37:04;3.27;;;1.50;;
34102;SDS011;20381;54.498;18.206;2022-07-10T20:39:48;2.50;;;1.60;;
